Mayya, Russia
Current Conditions -  °F | °C
As of 10:30 AM on Wednesday 28 Jan 2015 (Local Time) from UEEE Reporting Station
Clear Clear  
Wind Chill: -44°   Ceiling: Unl
Heat Index: -29°   Visibility: 6mi
Dew Point: -36°   Wind: 4mph
Humidity: 68%   Direction: 360°N
Pressure: 30.18"   Gusts: NA
Location:  61.73°N, 130.28°E
Report Text: UEEE 280130Z 36002MPS CAVOK M34/M38 Q1022 NOSIG RMK QFE75823490150
Loading
Personal Weather Stations






























Interactive Weather Map New forecast layout! Learn more

10-Day Weather Forecast

Advertisements
Track Severe Weather on mobile